sensor_id;sensor_type;location;lat;lon;timestamp;P1;durP1;ratioP1;P2;durP2;ratioP2
46983;SDS011;34732;52.112;9.366;2023-04-22T09:01:14;20.98;;;5.00;;
46983;SDS011;34732;52.112;9.366;2023-04-22T09:04:39;12.50;;;4.25;;
46983;SDS011;34732;52.112;9.366;2023-04-22T09:11:27;9.75;;;4.18;;
46983;SDS011;34732;52.112;9.366;2023-04-22T09:14:52;11.70;;;3.92;;
46983;SDS011;34732;52.112;9.366;2023-04-22T09:18:16;9.52;;;3.80;;
46983;SDS011;34732;52.112;9.366;2023-04-22T09:21:39;6.22;;;3.53;;
46983;SDS011;34732;52.112;9.366;2023-04-22T09:32:13;7.50;;;3.40;;
46983;SDS011;34732;52.112;9.366;2023-04-22T09:35:40;8.10;;;3.65;;
46983;SDS011;34732;52.112;9.366;2023-04-22T09:39:07;6.00;;;3.25;;
46983;SDS011;34732;52.112;9.366;2023-04-22T09:42:33;6.75;;;3.60;;
46983;SDS011;34732;52.112;9.366;2023-04-22T09:46:17;6.82;;;3.35;;
46983;SDS011;34732;52.112;9.366;2023-04-22T09:49:39;5.03;;;3.17;;
46983;SDS011;34732;52.112;9.366;2023-04-22T09:53:09;4.65;;;2.95;;
46983;SDS011;34732;52.112;9.366;2023-04-22T09:56:49;6.78;;;3.08;;
46983;SDS011;34732;52.112;9.366;2023-04-22T10:00:14;3.83;;;3.08;;
46983;SDS011;34732;52.112;9.366;2023-04-22T10:03:36;4.53;;;3.08;;
46983;SDS011;34732;52.112;9.366;2023-04-22T10:07:05;4.03;;;2.65;;
46983;SDS011;34732;52.112;9.366;2023-04-22T10:10:31;5.38;;;3.05;;
46983;SDS011;34732;52.112;9.366;2023-04-22T10:13:56;4.53;;;3.10;;
46983;SDS011;34732;52.112;9.366;2023-04-22T10:17:20;8.73;;;3.00;;
46983;SDS011;34732;52.112;9.366;2023-04-22T10:20:44;4.30;;;2.78;;
46983;SDS011;34732;52.112;9.366;2023-04-22T10:24:15;3.53;;;2.60;;
46983;SDS011;34732;52.112;9.366;2023-04-22T10:27:37;3.33;;;2.22;;
46983;SDS011;34732;52.112;9.366;2023-04-22T10:31:13;2.70;;;2.50;;
46983;SDS011;34732;52.112;9.366;2023-04-22T10:34:43;2.97;;;2.55;;
46983;SDS011;34732;52.112;9.366;2023-04-22T10:38:11;3.85;;;3.17;;
46983;SDS011;34732;52.112;9.366;2023-04-22T10:41:35;3.65;;;3.03;;
46983;SDS011;34732;52.112;9.366;2023-04-22T10:45:01;3.35;;;2.88;;
46983;SDS011;34732;52.112;9.366;2023-04-22T10:48:45;3.72;;;2.75;;
46983;SDS011;34732;52.112;9.366;2023-04-22T10:55:51;3.50;;;2.50;;
46983;SDS011;34732;52.112;9.366;2023-04-22T10:59:21;3.83;;;2.47;;
46983;SDS011;34732;52.112;9.366;2023-04-22T11:03:09;3.40;;;2.70;;
46983;SDS011;34732;52.112;9.366;2023-04-22T11:06:30;3.00;;;2.67;;
46983;SDS011;34732;52.112;9.366;2023-04-22T11:10:01;2.42;;;2.22;;
46983;SDS011;34732;52.112;9.366;2023-04-22T11:13:26;3.22;;;1.90;;
46983;SDS011;34732;52.112;9.366;2023-04-22T11:16:51;3.17;;;2.25;;
46983;SDS011;34732;52.112;9.366;2023-04-22T11:20:13;2.88;;;2.50;;
46983;SDS011;34732;52.112;9.366;2023-04-22T11:23:47;4.88;;;2.40;;
46983;SDS011;34732;52.112;9.366;2023-04-22T11:27:20;3.13;;;2.35;;
46983;SDS011;34732;52.112;9.366;2023-04-22T11:30:46;3.03;;;2.20;;
46983;SDS011;34732;52.112;9.366;2023-04-22T11:34:08;2.85;;;2.40;;
46983;SDS011;34732;52.112;9.366;2023-04-22T11:40:50;3.40;;;2.07;;
46983;SDS011;34732;52.112;9.366;2023-04-22T11:44:21;2.42;;;2.20;;
46983;SDS011;34732;52.112;9.366;2023-04-22T11:47:46;2.78;;;2.30;;
46983;SDS011;34732;52.112;9.366;2023-04-22T11:51:10;2.80;;;2.20;;
46983;SDS011;34732;52.112;9.366;2023-04-22T11:54:35;1.80;;;1.70;;
46983;SDS011;34732;52.112;9.366;2023-04-22T11:58:10;2.75;;;2.42;;
46983;SDS011;34732;52.112;9.366;2023-04-22T12:01:51;4.25;;;2.80;;
46983;SDS011;34732;52.112;9.366;2023-04-22T12:05:12;2.72;;;2.33;;
46983;SDS011;34732;52.112;9.366;2023-04-22T12:08:39;2.30;;;2.10;;
46983;SDS011;34732;52.112;9.366;2023-04-22T12:12:02;3.90;;;2.20;;
46983;SDS011;34732;52.112;9.366;2023-04-22T12:15:26;2.13;;;1.92;;
46983;SDS011;34732;52.112;9.366;2023-04-22T12:18:57;3.92;;;2.20;;
46983;SDS011;34732;52.112;9.366;2023-04-22T12:22:24;2.97;;;2.17;;
46983;SDS011;34732;52.112;9.366;2023-04-22T12:25:50;4.13;;;2.00;;
46983;SDS011;34732;52.112;9.366;2023-04-22T12:29:13;4.78;;;2.38;;
46983;SDS011;34732;52.112;9.366;2023-04-22T12:32:37;2.28;;;2.00;;
46983;SDS011;34732;52.112;9.366;2023-04-22T12:36:03;3.10;;;1.90;;
46983;SDS011;34732;52.112;9.366;2023-04-22T12:39:25;4.88;;;2.28;;
46983;SDS011;34732;52.112;9.366;2023-04-22T12:42:52;4.28;;;2.28;;
46983;SDS011;34732;52.112;9.366;2023-04-22T12:46:13;5.25;;;2.38;;
46983;SDS011;34732;52.112;9.366;2023-04-22T12:49:36;5.25;;;2.55;;
46983;SDS011;34732;52.112;9.366;2023-04-22T12:53:01;4.97;;;2.38;;
46983;SDS011;34732;52.112;9.366;2023-04-22T12:56:24;4.25;;;2.30;;
46983;SDS011;34732;52.112;9.366;2023-04-22T12:59:48;3.70;;;2.35;;
46983;SDS011;34732;52.112;9.366;2023-04-22T13:03:16;4.32;;;2.40;;
46983;SDS011;34732;52.112;9.366;2023-04-22T13:06:40;3.80;;;1.95;;
46983;SDS011;34732;52.112;9.366;2023-04-22T13:10:04;4.63;;;2.28;;
46983;SDS011;34732;52.112;9.366;2023-04-22T13:13:26;2.35;;;1.60;;
46983;SDS011;34732;52.112;9.366;2023-04-22T13:16:50;4.07;;;2.10;;
46983;SDS011;34732;52.112;9.366;2023-04-22T13:20:14;3.55;;;2.15;;
46983;SDS011;34732;52.112;9.366;2023-04-22T13:23:40;2.85;;;2.03;;
46983;SDS011;34732;52.112;9.366;2023-04-22T13:27:01;4.05;;;1.90;;
46983;SDS011;34732;52.112;9.366;2023-04-22T13:30:22;3.42;;;2.00;;
46983;SDS011;34732;52.112;9.366;2023-04-22T13:33:46;5.00;;;2.10;;
46983;SDS011;34732;52.112;9.366;2023-04-22T13:37:10;2.47;;;2.03;;
46983;SDS011;34732;52.112;9.366;2023-04-22T13:40:35;3.33;;;1.90;;
46983;SDS011;34732;52.112;9.366;2023-04-22T13:43:59;3.58;;;2.08;;
46983;SDS011;34732;52.112;9.366;2023-04-22T13:47:28;2.92;;;2.00;;
46983;SDS011;34732;52.112;9.366;2023-04-22T13:50:52;5.63;;;2.50;;
46983;SDS011;34732;52.112;9.366;2023-04-22T13:54:15;5.25;;;1.83;;
46983;SDS011;34732;52.112;9.366;2023-04-22T13:57:41;4.78;;;2.10;;
46983;SDS011;34732;52.112;9.366;2023-04-22T14:01:07;3.97;;;2.10;;
46983;SDS011;34732;52.112;9.366;2023-04-22T14:04:28;2.53;;;1.95;;
46983;SDS011;34732;52.112;9.366;2023-04-22T14:07:57;5.18;;;2.08;;
46983;SDS011;34732;52.112;9.366;2023-04-22T14:11:21;4.18;;;2.28;;
46983;SDS011;34732;52.112;9.366;2023-04-22T14:14:42;9.07;;;2.30;;
46983;SDS011;34732;52.112;9.366;2023-04-22T14:18:13;4.63;;;2.20;;
46983;SDS011;34732;52.112;9.366;2023-04-22T14:21:39;4.72;;;2.17;;
46983;SDS011;34732;52.112;9.366;2023-04-22T14:25:05;2.22;;;1.50;;
46983;SDS011;34732;52.112;9.366;2023-04-22T14:28:30;6.05;;;1.70;;
46983;SDS011;34732;52.112;9.366;2023-04-22T14:31:56;2.38;;;1.80;;
46983;SDS011;34732;52.112;9.366;2023-04-22T14:38:43;2.78;;;1.73;;
46983;SDS011;34732;52.112;9.366;2023-04-22T14:42:04;2.05;;;1.73;;
46983;SDS011;34732;52.112;9.366;2023-04-22T14:45:26;3.00;;;1.58;;
46983;SDS011;34732;52.112;9.366;2023-04-22T14:48:48;3.08;;;2.00;;
46983;SDS011;34732;52.112;9.366;2023-04-22T14:52:14;4.57;;;1.80;;
46983;SDS011;34732;52.112;9.366;2023-04-22T14:55:40;3.28;;;1.45;;
46983;SDS011;34732;52.112;9.366;2023-04-22T14:59:06;3.67;;;1.90;;
46983;SDS011;34732;52.112;9.366;2023-04-22T15:02:27;2.40;;;1.73;;
46983;SDS011;34732;52.112;9.366;2023-04-22T15:05:54;3.95;;;2.00;;
46983;SDS011;34732;52.112;9.366;2023-04-22T15:09:18;2.50;;;1.35;;
46983;SDS011;34732;52.112;9.366;2023-04-22T15:12:44;3.25;;;1.40;;
46983;SDS011;34732;52.112;9.366;2023-04-22T15:16:10;1.73;;;1.60;;
46983;SDS011;34732;52.112;9.366;2023-04-22T15:19:35;2.90;;;1.95;;
46983;SDS011;34732;52.112;9.366;2023-04-22T15:22:57;2.03;;;1.48;;
46983;SDS011;34732;52.112;9.366;2023-04-22T15:26:27;7.40;;;1.70;;
46983;SDS011;34732;52.112;9.366;2023-04-22T15:29:51;2.25;;;1.45;;
46983;SDS011;34732;52.112;9.366;2023-04-22T15:33:17;5.25;;;1.58;;
46983;SDS011;34732;52.112;9.366;2023-04-22T15:36:42;1.98;;;1.25;;
46983;SDS011;34732;52.112;9.366;2023-04-22T15:40:04;3.53;;;2.28;;
46983;SDS011;34732;52.112;9.366;2023-04-22T15:43:30;3.97;;;1.85;;
46983;SDS011;34732;52.112;9.366;2023-04-22T15:46:56;2.28;;;1.33;;
46983;SDS011;34732;52.112;9.366;2023-04-22T15:50:21;3.70;;;1.73;;
46983;SDS011;34732;52.112;9.366;2023-04-22T15:53:50;2.85;;;1.80;;
46983;SDS011;34732;52.112;9.366;2023-04-22T15:57:14;2.75;;;1.33;;
46983;SDS011;34732;52.112;9.366;2023-04-22T16:00:38;2.53;;;1.60;;
46983;SDS011;34732;52.112;9.366;2023-04-22T16:03:59;2.83;;;1.73;;
46983;SDS011;34732;52.112;9.366;2023-04-22T16:07:20;2.25;;;1.55;;
46983;SDS011;34732;52.112;9.366;2023-04-22T16:10:43;2.90;;;1.80;;
46983;SDS011;34732;52.112;9.366;2023-04-22T16:14:11;2.05;;;1.60;;
46983;SDS011;34732;52.112;9.366;2023-04-22T16:17:36;1.63;;;1.52;;
46983;SDS011;34732;52.112;9.366;2023-04-22T16:21:02;2.67;;;1.50;;
46983;SDS011;34732;52.112;9.366;2023-04-22T16:24:26;3.03;;;1.35;;
46983;SDS011;34732;52.112;9.366;2023-04-22T16:27:52;2.00;;;1.38;;
46983;SDS011;34732;52.112;9.366;2023-04-22T16:31:13;2.05;;;1.45;;
46983;SDS011;34732;52.112;9.366;2023-04-22T16:34:47;2.08;;;1.42;;
46983;SDS011;34732;52.112;9.366;2023-04-22T16:38:08;2.47;;;1.58;;
46983;SDS011;34732;52.112;9.366;2023-04-22T16:41:34;2.83;;;1.98;;
46983;SDS011;34732;52.112;9.366;2023-04-22T16:45:00;2.08;;;1.35;;
46983;SDS011;34732;52.112;9.366;2023-04-22T16:48:26;3.92;;;1.50;;
46983;SDS011;34732;52.112;9.366;2023-04-22T16:51:52;5.85;;;1.63;;
46983;SDS011;34732;52.112;9.366;2023-04-22T16:55:16;3.45;;;1.70;;
46983;SDS011;34732;52.112;9.366;2023-04-22T16:58:38;2.20;;;1.38;;
46983;SDS011;34732;52.112;9.366;2023-04-22T17:02:03;3.30;;;1.60;;
46983;SDS011;34732;52.112;9.366;2023-04-22T17:05:25;1.75;;;1.50;;
46983;SDS011;34732;52.112;9.366;2023-04-22T17:08:48;2.97;;;1.50;;
46983;SDS011;34732;52.112;9.366;2023-04-22T17:12:10;2.22;;;1.55;;
46983;SDS011;34732;52.112;9.366;2023-04-22T17:15:32;1.88;;;1.58;;
46983;SDS011;34732;52.112;9.366;2023-04-22T17:18:56;2.20;;;1.80;;
46983;SDS011;34732;52.112;9.366;2023-04-22T17:22:17;1.55;;;1.40;;
46983;SDS011;34732;52.112;9.366;2023-04-22T17:25:41;1.80;;;1.27;;
46983;SDS011;34732;52.112;9.366;2023-04-22T17:29:02;2.35;;;1.50;;
46983;SDS011;34732;52.112;9.366;2023-04-22T17:32:30;1.63;;;1.38;;
46983;SDS011;34732;52.112;9.366;2023-04-22T17:35:54;3.25;;;1.50;;
46983;SDS011;34732;52.112;9.366;2023-04-22T17:39:23;2.85;;;1.70;;
46983;SDS011;34732;52.112;9.366;2023-04-22T17:42:46;2.63;;;1.35;;
46983;SDS011;34732;52.112;9.366;2023-04-22T17:46:12;2.38;;;1.50;;
46983;SDS011;34732;52.112;9.366;2023-04-22T17:49:35;2.47;;;1.45;;
46983;SDS011;34732;52.112;9.366;2023-04-22T17:53:01;3.47;;;1.40;;
46983;SDS011;34732;52.112;9.366;2023-04-22T17:56:22;2.25;;;1.30;;
46983;SDS011;34732;52.112;9.366;2023-04-22T17:59:46;2.03;;;1.42;;
46983;SDS011;34732;52.112;9.366;2023-04-22T18:03:09;2.03;;;1.45;;
46983;SDS011;34732;52.112;9.366;2023-04-22T18:06:39;4.85;;;1.40;;
46983;SDS011;34732;52.112;9.366;2023-04-22T18:10:03;2.42;;;1.33;;
46983;SDS011;34732;52.112;9.366;2023-04-22T18:13:27;3.47;;;1.40;;
46983;SDS011;34732;52.112;9.366;2023-04-22T18:16:51;1.63;;;1.35;;
46983;SDS011;34732;52.112;9.366;2023-04-22T18:20:14;2.60;;;1.35;;
46983;SDS011;34732;52.112;9.366;2023-04-22T18:23:37;2.05;;;1.30;;
46983;SDS011;34732;52.112;9.366;2023-04-22T18:27:06;2.00;;;1.40;;
46983;SDS011;34732;52.112;9.366;2023-04-22T18:30:29;3.40;;;1.20;;
46983;SDS011;34732;52.112;9.366;2023-04-22T18:33:54;1.92;;;1.30;;
46983;SDS011;34732;52.112;9.366;2023-04-22T18:37:17;1.60;;;1.40;;
46983;SDS011;34732;52.112;9.366;2023-04-22T18:40:41;1.83;;;1.42;;
46983;SDS011;34732;52.112;9.366;2023-04-22T18:44:07;1.95;;;1.40;;
46983;SDS011;34732;52.112;9.366;2023-04-22T18:47:31;3.42;;;1.35;;
46983;SDS011;34732;52.112;9.366;2023-04-22T18:50:56;2.35;;;1.45;;
46983;SDS011;34732;52.112;9.366;2023-04-22T18:54:20;1.80;;;1.23;;
46983;SDS011;34732;52.112;9.366;2023-04-22T18:57:41;2.35;;;1.15;;
46983;SDS011;34732;52.112;9.366;2023-04-22T19:01:07;3.08;;;1.40;;
46983;SDS011;34732;52.112;9.366;2023-04-22T19:04:33;2.95;;;1.40;;
46983;SDS011;34732;52.112;9.366;2023-04-22T19:08:04;1.95;;;1.38;;
46983;SDS011;34732;52.112;9.366;2023-04-22T19:11:30;3.58;;;1.70;;
46983;SDS011;34732;52.112;9.366;2023-04-22T19:14:51;1.95;;;1.40;;
46983;SDS011;34732;52.112;9.366;2023-04-22T19:18:14;1.55;;;1.38;;
46983;SDS011;34732;52.112;9.366;2023-04-22T19:21:40;1.52;;;1.25;;
46983;SDS011;34732;52.112;9.366;2023-04-22T19:25:09;1.52;;;1.27;;
46983;SDS011;34732;52.112;9.366;2023-04-22T19:28:37;1.90;;;1.52;;
46983;SDS011;34732;52.112;9.366;2023-04-22T19:32:06;2.47;;;1.60;;
46983;SDS011;34732;52.112;9.366;2023-04-22T19:35:32;2.25;;;1.40;;
46983;SDS011;34732;52.112;9.366;2023-04-22T19:38:58;5.05;;;1.83;;
46983;SDS011;34732;52.112;9.366;2023-04-22T19:42:23;4.28;;;1.50;;
46983;SDS011;34732;52.112;9.366;2023-04-22T19:45:49;5.82;;;2.20;;
46983;SDS011;34732;52.112;9.366;2023-04-22T19:49:18;4.13;;;2.67;;
46983;SDS011;34732;52.112;9.366;2023-04-22T19:52:45;5.00;;;2.53;;
46983;SDS011;34732;52.112;9.366;2023-04-22T20:00:10;3.47;;;2.70;;
